createdAt,value
2023-01-30T00:04:21.029Z,101037.75
2023-01-30T00:09:23.523Z,101032.13
2023-01-30T00:14:24.974Z,101034.00
2023-01-30T00:19:26.446Z,101032.88
2023-01-30T00:24:28.184Z,101026.47
2023-01-30T00:29:29.720Z,101006.44
2023-01-30T00:34:31.176Z,101005.47
2023-01-30T00:39:32.686Z,101002.53
2023-01-30T00:44:34.088Z,101033.22
2023-01-30T00:49:36.815Z,101022.06
2023-01-30T00:54:38.366Z,101006.38
2023-01-30T00:59:39.920Z,101005.41
2023-01-30T01:04:41.360Z,100981.59
2023-01-30T01:09:42.835Z,100983.16
2023-01-30T01:14:44.314Z,100980.53
2023-01-30T01:19:45.949Z,100967.88
2023-01-30T01:24:47.455Z,100972.16
2023-01-30T01:29:48.926Z,100966.59
2023-01-30T01:34:50.361Z,100943.53
2023-01-30T01:39:51.867Z,100942.81
2023-01-30T01:45:20.416Z,100940.44
2023-01-30T01:50:28.627Z,100942.84
2023-01-30T01:55:30.956Z,100916.22
2023-01-30T02:00:32.825Z,100896.22
2023-01-30T02:05:38.669Z,100895.44
2023-01-30T02:10:52.944Z,100892.59
2023-01-30T02:15:58.178Z,100896.63
2023-01-30T02:21:24.599Z,100893.44
2023-01-30T02:26:28.801Z,100886.50
2023-01-30T02:31:48.606Z,100889.91
2023-01-30T02:37:15.699Z,100890.53
2023-01-30T02:42:37.210Z,100911.59
2023-01-30T02:47:47.070Z,100903.06
2023-01-30T02:52:48.726Z,100910.66
2023-01-30T02:57:50.325Z,100891.31
2023-01-30T03:03:05.103Z,100897.97
2023-01-30T03:08:30.743Z,100878.34
2023-01-30T03:13:57.939Z,100869.53
2023-01-30T03:19:04.319Z,100849.94
2023-01-30T03:24:06.439Z,100868.66
2023-01-30T03:29:07.989Z,100856.75
2023-01-30T03:34:10.631Z,100854.38
2023-01-30T03:39:12.157Z,100842.47
2023-01-30T03:44:13.566Z,100820.34
2023-01-30T03:49:15.027Z,100802.56
2023-01-30T03:54:16.452Z,100801.22
2023-01-30T03:59:17.863Z,100780.16
2023-01-30T04:04:19.478Z,100775.16
2023-01-30T04:09:20.989Z,100750.25
2023-01-30T04:14:22.475Z,100731.38
2023-01-30T04:19:23.994Z,100727.28
2023-01-30T04:24:25.413Z,100716.00
2023-01-30T04:29:26.878Z,100710.00
2023-01-30T04:34:28.288Z,100710.00
2023-01-30T04:39:29.916Z,100719.16
2023-01-30T04:44:31.579Z,100702.47
2023-01-30T04:49:33.007Z,100707.09
2023-01-30T04:54:34.539Z,100715.47
2023-01-30T04:59:35.949Z,100697.13
2023-01-30T05:04:37.463Z,100679.28
2023-01-30T05:09:38.932Z,100661.38
2023-01-30T05:14:40.407Z,100673.69
2023-01-30T05:19:41.837Z,100681.06
2023-01-30T05:24:43.457Z,100684.56
2023-01-30T05:29:44.964Z,100673.34
2023-01-30T05:34:48.641Z,100675.56
2023-01-30T05:39:50.192Z,100650.97
2023-01-30T05:44:51.795Z,100649.41
2023-01-30T05:49:53.237Z,100646.19
2023-01-30T05:54:54.815Z,100622.22
2023-01-30T05:59:56.254Z,100632.28
2023-01-30T06:04:57.779Z,100611.28
2023-01-30T06:09:59.508Z,100612.13
2023-01-30T06:15:01.023Z,100626.75
2023-01-30T06:20:02.685Z,100622.69
2023-01-30T06:25:05.507Z,100625.00
2023-01-30T06:30:07.563Z,100640.41
2023-01-30T06:35:09.707Z,100619.91
2023-01-30T06:40:11.961Z,100620.84
2023-01-30T06:45:14.913Z,100641.19
2023-01-30T06:50:18.313Z,100626.31
2023-01-30T06:55:22.682Z,100610.81
2023-01-30T07:00:24.318Z,100620.69
2023-01-30T07:05:26.332Z,100635.03
2023-01-30T07:10:27.876Z,100663.94
2023-01-30T07:15:29.663Z,100652.31
2023-01-30T07:20:31.553Z,100654.53
2023-01-30T07:25:33.070Z,100653.78
2023-01-30T07:30:35.431Z,100666.25
2023-01-30T07:35:38.220Z,100664.22
2023-01-30T07:40:39.811Z,100652.41
2023-01-30T07:45:42.293Z,100677.72
2023-01-30T07:50:44.412Z,100682.28
2023-01-30T07:55:46.053Z,100673.44
2023-01-30T08:00:47.765Z,100677.81
2023-01-30T08:05:52.490Z,100664.25
2023-01-30T08:10:54.048Z,100639.59
2023-01-30T08:15:55.494Z,100646.69
2023-01-30T08:20:58.471Z,100656.53
2023-01-30T08:26:02.564Z,100656.16
2023-01-30T08:31:10.638Z,100648.13
2023-01-30T08:36:12.179Z,100661.97
2023-01-30T08:41:13.797Z,100662.03
2023-01-30T08:46:15.349Z,100667.28
2023-01-30T08:51:17.076Z,100666.41
2023-01-30T08:56:18.804Z,100670.97
2023-01-30T09:01:20.627Z,100666.22
2023-01-30T09:06:23.355Z,100647.31
2023-01-30T09:11:26.136Z,100667.38
2023-01-30T09:16:27.623Z,100668.81
2023-01-30T09:21:29.127Z,100660.78
2023-01-30T09:26:30.928Z,100664.97
2023-01-30T09:31:32.563Z,100685.53
2023-01-30T09:36:34.187Z,100687.84
2023-01-30T09:41:55.769Z,100694.28
2023-01-30T09:47:05.860Z,100696.22
2023-01-30T09:52:22.349Z,100703.13
2023-01-30T09:57:25.540Z,100688.59
2023-01-30T10:02:44.581Z,100682.06
2023-01-30T10:08:02.623Z,100687.78
2023-01-30T10:13:18.821Z,100699.47
2023-01-30T10:18:47.982Z,100685.53
2023-01-30T10:24:18.930Z,100679.53
2023-01-30T10:29:31.476Z,100683.97
2023-01-30T10:34:37.847Z,100674.88
2023-01-30T10:40:02.882Z,100664.56
2023-01-30T10:45:17.337Z,100660.44
2023-01-30T10:50:23.524Z,100656.97
2023-01-30T10:55:46.407Z,100666.94
2023-01-30T11:01:06.052Z,100672.44
2023-01-30T11:06:11.523Z,100671.69
2023-01-30T11:11:28.217Z,100670.84
2023-01-30T11:16:31.523Z,100658.97
2023-01-30T11:21:43.450Z,100659.88
2023-01-30T11:26:48.377Z,100668.72
2023-01-30T11:31:52.061Z,100675.47
2023-01-30T11:36:53.728Z,100693.19
2023-01-30T11:41:55.347Z,100694.66
2023-01-30T11:47:03.950Z,100686.31
2023-01-30T11:52:06.252Z,100685.41
2023-01-30T11:57:14.279Z,100668.81
2023-01-30T12:02:21.343Z,100665.09
2023-01-30T12:07:28.569Z,100640.34
2023-01-30T12:12:43.730Z,100636.22
2023-01-30T12:18:00.039Z,100630.81
2023-01-30T12:23:07.794Z,100634.91
2023-01-30T12:28:57.569Z,100632.13
2023-01-30T12:33:59.722Z,100630.00
2023-01-30T12:39:25.712Z,100620.56
2023-01-30T12:44:42.304Z,100629.19
2023-01-30T12:49:46.381Z,100634.88
2023-01-30T12:54:57.537Z,100634.09
2023-01-30T13:00:22.251Z,100631.38
2023-01-30T13:05:41.216Z,100644.41
2023-01-30T13:10:56.620Z,100651.63
2023-01-30T13:16:10.487Z,100650.75
2023-01-30T13:21:46.133Z,100662.31
2023-01-30T13:26:49.595Z,100662.94
2023-01-30T13:31:57.167Z,100666.16
2023-01-30T13:37:10.835Z,100657.31
2023-01-30T13:42:33.041Z,100659.84
2023-01-30T13:48:01.697Z,100661.47
2023-01-30T13:53:10.998Z,100675.50
2023-01-30T13:58:35.693Z,100690.31
2023-01-30T14:03:37.620Z,100703.03
2023-01-30T14:09:01.415Z,100711.00
2023-01-30T14:14:19.746Z,100710.59
2023-01-30T14:19:24.293Z,100719.44
2023-01-30T14:24:27.388Z,100737.66
2023-01-30T14:29:53.013Z,100762.16
2023-01-30T14:35:03.287Z,100766.34
2023-01-30T14:40:24.811Z,100783.31
2023-01-30T14:45:49.935Z,100786.78
2023-01-30T14:51:32.029Z,100783.97
2023-01-30T14:56:42.548Z,100793.16
2023-01-30T15:01:54.923Z,100798.03
2023-01-30T15:06:59.220Z,100809.09
2023-01-30T15:12:13.228Z,100804.16
2023-01-30T15:17:23.552Z,100818.41
2023-01-30T15:22:38.231Z,100820.16
2023-01-30T15:28:14.446Z,100829.25
2023-01-30T15:33:29.911Z,100833.97
2023-01-30T15:38:34.502Z,100840.25
2023-01-30T15:43:48.342Z,100837.41
2023-01-30T15:49:05.039Z,100848.00
2023-01-30T15:54:11.227Z,100856.97
2023-01-30T15:59:29.201Z,100857.91
2023-01-30T16:04:30.741Z,100863.00
2023-01-30T16:09:32.199Z,100875.03
2023-01-30T16:14:33.718Z,100885.88
2023-01-30T16:19:37.742Z,100878.38
2023-01-30T16:24:44.336Z,100892.03
2023-01-30T16:29:55.674Z,100896.19
2023-01-30T16:35:27.260Z,100909.91
2023-01-30T16:40:42.777Z,100927.06
2023-01-30T16:45:47.134Z,100937.97
2023-01-30T16:51:04.609Z,100947.78
2023-01-30T16:56:16.695Z,100955.22
2023-01-30T17:01:18.895Z,100966.72
2023-01-30T17:06:36.378Z,100969.94
2023-01-30T17:11:40.457Z,100976.53
2023-01-30T17:16:42.488Z,100979.16
2023-01-30T17:21:45.214Z,100988.13
2023-01-30T17:26:49.258Z,100997.91
2023-01-30T17:31:52.126Z,101004.78
2023-01-30T17:36:54.585Z,101007.00
2023-01-30T17:41:56.071Z,101019.84
2023-01-30T17:46:57.609Z,101035.31
2023-01-30T17:51:59.057Z,101044.91
2023-01-30T17:57:03.053Z,101052.69
2023-01-30T18:02:04.585Z,101058.78
2023-01-30T18:07:08.085Z,101063.03
2023-01-30T18:12:09.603Z,101064.47
2023-01-30T18:17:11.445Z,101073.28
2023-01-30T18:22:12.921Z,101090.41
2023-01-30T18:27:14.648Z,101107.00
2023-01-30T18:32:16.389Z,101109.41
2023-01-30T18:37:17.865Z,101107.84
2023-01-30T18:42:19.364Z,101112.25
2023-01-30T18:47:20.846Z,101120.97
2023-01-30T18:52:22.277Z,101123.72
2023-01-30T18:57:23.808Z,101130.56
2023-01-30T19:02:25.335Z,101136.09
2023-01-30T19:07:26.811Z,101130.44
2023-01-30T19:12:28.453Z,101151.38
2023-01-30T19:17:32.727Z,101150.91
2023-01-30T19:22:34.152Z,101151.66
2023-01-30T19:27:37.005Z,101151.25
2023-01-30T19:32:38.503Z,101164.72
2023-01-30T19:37:39.983Z,101166.28
2023-01-30T19:42:44.451Z,101168.50
2023-01-30T19:47:46.251Z,101172.63
2023-01-30T19:52:47.681Z,101177.28
2023-01-30T19:57:49.057Z,101198.91
2023-01-30T20:02:50.540Z,101196.59
2023-01-30T20:07:52.020Z,101190.25
2023-01-30T20:12:53.479Z,101204.00
2023-01-30T20:17:54.929Z,101210.78
2023-01-30T20:22:56.360Z,101211.38
2023-01-30T20:27:57.814Z,101210.22
2023-01-30T20:32:59.197Z,101232.63
2023-01-30T20:38:00.876Z,101242.53
2023-01-30T20:43:02.389Z,101234.59
2023-01-30T20:48:04.415Z,101232.38
2023-01-30T20:53:05.919Z,101247.34
2023-01-30T20:58:07.489Z,101262.94
2023-01-30T21:03:08.976Z,101274.66
2023-01-30T21:08:10.473Z,101284.44
2023-01-30T21:13:11.913Z,101303.50
2023-01-30T21:18:13.678Z,101302.41
2023-01-30T21:23:16.422Z,101313.16
2023-01-30T21:28:18.030Z,101313.84
2023-01-30T21:33:19.515Z,101331.34
2023-01-30T21:38:22.572Z,101333.75
2023-01-30T21:43:24.090Z,101343.16
2023-01-30T21:48:25.615Z,101353.00
2023-01-30T21:53:27.169Z,101361.50
2023-01-30T21:58:32.470Z,101358.13
2023-01-30T22:03:35.467Z,101375.97
2023-01-30T22:08:38.046Z,101375.41
2023-01-30T22:13:41.086Z,101379.16
2023-01-30T22:18:43.614Z,101391.88
2023-01-30T22:23:46.888Z,101397.53
2023-01-30T22:28:48.486Z,101389.56
2023-01-30T22:33:52.876Z,101392.53
2023-01-30T22:38:55.128Z,101391.56
2023-01-30T22:43:58.779Z,101390.97
2023-01-30T22:49:01.335Z,101387.75
2023-01-30T22:54:05.935Z,101391.19
2023-01-30T22:59:08.103Z,101393.75
2023-01-30T23:04:18.679Z,101393.78
2023-01-30T23:09:22.471Z,101402.03
2023-01-30T23:14:23.980Z,101384.47
2023-01-30T23:19:25.738Z,101379.19
2023-01-30T23:24:27.202Z,101382.03
2023-01-30T23:29:28.702Z,101381.59
2023-01-30T23:34:30.277Z,101393.78
2023-01-30T23:39:31.880Z,101404.22
2023-01-30T23:44:33.433Z,101394.22
2023-01-30T23:49:37.982Z,101395.22
2023-01-30T23:54:39.740Z,101391.31
2023-01-30T23:59:41.251Z,101377.03
